sensor_id;sensor_type;location;lat;lon;timestamp;P1;durP1;ratioP1;P2;durP2;ratioP2
10719;SDS011;5411;58.386;15.560;2022-10-16T00:01:50;7.20;;;5.30;;
10719;SDS011;5411;58.386;15.560;2022-10-16T00:04:19;6.60;;;5.93;;
10719;SDS011;5411;58.386;15.560;2022-10-16T00:06:47;7.17;;;5.80;;
10719;SDS011;5411;58.386;15.560;2022-10-16T00:09:15;6.80;;;6.17;;
10719;SDS011;5411;58.386;15.560;2022-10-16T00:11:43;7.10;;;5.57;;
10719;SDS011;5411;58.386;15.560;2022-10-16T00:14:12;7.77;;;6.20;;
10719;SDS011;5411;58.386;15.560;2022-10-16T00:16:43;7.00;;;6.30;;
10719;SDS011;5411;58.386;15.560;2022-10-16T00:19:11;7.10;;;5.93;;
10719;SDS011;5411;58.386;15.560;2022-10-16T00:21:39;7.27;;;5.77;;
10719;SDS011;5411;58.386;15.560;2022-10-16T00:24:08;5.30;;;4.80;;
10719;SDS011;5411;58.386;15.560;2022-10-16T00:26:37;5.73;;;3.97;;
10719;SDS011;5411;58.386;15.560;2022-10-16T00:29:06;5.87;;;4.13;;
10719;SDS011;5411;58.386;15.560;2022-10-16T00:31:35;5.67;;;4.13;;
10719;SDS011;5411;58.386;15.560;2022-10-16T00:34:04;5.13;;;4.63;;
10719;SDS011;5411;58.386;15.560;2022-10-16T00:36:33;4.40;;;3.97;;
10719;SDS011;5411;58.386;15.560;2022-10-16T00:39:01;4.73;;;4.23;;
10719;SDS011;5411;58.386;15.560;2022-10-16T00:41:29;6.77;;;4.10;;
10719;SDS011;5411;58.386;15.560;2022-10-16T00:43:58;4.10;;;3.70;;
10719;SDS011;5411;58.386;15.560;2022-10-16T00:46:27;4.73;;;4.17;;
10719;SDS011;5411;58.386;15.560;2022-10-16T00:49:01;5.07;;;4.17;;
10719;SDS011;5411;58.386;15.560;2022-10-16T00:51:37;4.83;;;3.57;;
10719;SDS011;5411;58.386;15.560;2022-10-16T00:54:08;8.33;;;3.90;;
10719;SDS011;5411;58.386;15.560;2022-10-16T00:56:38;4.67;;;4.07;;
10719;SDS011;5411;58.386;15.560;2022-10-16T00:59:08;3.57;;;3.27;;
10719;SDS011;5411;58.386;15.560;2022-10-16T01:01:41;6.43;;;4.27;;
10719;SDS011;5411;58.386;15.560;2022-10-16T01:04:11;4.70;;;4.27;;
10719;SDS011;5411;58.386;15.560;2022-10-16T01:06:40;5.87;;;4.00;;
10719;SDS011;5411;58.386;15.560;2022-10-16T01:09:17;7.63;;;4.40;;
10719;SDS011;5411;58.386;15.560;2022-10-16T01:11:52;6.40;;;4.10;;
10719;SDS011;5411;58.386;15.560;2022-10-16T01:14:29;5.67;;;4.57;;
10719;SDS011;5411;58.386;15.560;2022-10-16T01:17:04;4.77;;;4.27;;
10719;SDS011;5411;58.386;15.560;2022-10-16T01:19:53;6.47;;;5.00;;
10719;SDS011;5411;58.386;15.560;2022-10-16T01:22:35;8.97;;;4.50;;
10719;SDS011;5411;58.386;15.560;2022-10-16T01:25:11;4.20;;;3.80;;
10719;SDS011;5411;58.386;15.560;2022-10-16T01:27:45;4.30;;;3.90;;
10719;SDS011;5411;58.386;15.560;2022-10-16T01:30:16;4.43;;;4.00;;
10719;SDS011;5411;58.386;15.560;2022-10-16T01:32:49;5.33;;;3.50;;
10719;SDS011;5411;58.386;15.560;2022-10-16T01:35:25;5.93;;;4.43;;
10719;SDS011;5411;58.386;15.560;2022-10-16T01:37:57;4.27;;;3.87;;
10719;SDS011;5411;58.386;15.560;2022-10-16T01:40:31;4.00;;;3.60;;
10719;SDS011;5411;58.386;15.560;2022-10-16T01:43:04;6.37;;;4.03;;
10719;SDS011;5411;58.386;15.560;2022-10-16T01:45:36;8.57;;;4.70;;
10719;SDS011;5411;58.386;15.560;2022-10-16T01:48:05;5.00;;;3.67;;
10719;SDS011;5411;58.386;15.560;2022-10-16T01:50:37;4.70;;;4.07;;
10719;SDS011;5411;58.386;15.560;2022-10-16T01:53:09;6.63;;;4.10;;
10719;SDS011;5411;58.386;15.560;2022-10-16T01:55:42;5.80;;;4.23;;
10719;SDS011;5411;58.386;15.560;2022-10-16T01:58:16;5.33;;;4.53;;
10719;SDS011;5411;58.386;15.560;2022-10-16T02:00:45;7.93;;;4.90;;
10719;SDS011;5411;58.386;15.560;2022-10-16T02:03:16;6.13;;;4.50;;
10719;SDS011;5411;58.386;15.560;2022-10-16T02:05:47;5.90;;;4.63;;
10719;SDS011;5411;58.386;15.560;2022-10-16T02:08:19;7.47;;;4.97;;
10719;SDS011;5411;58.386;15.560;2022-10-16T02:10:50;5.77;;;4.73;;
10719;SDS011;5411;58.386;15.560;2022-10-16T02:13:21;6.00;;;5.20;;
10719;SDS011;5411;58.386;15.560;2022-10-16T02:15:54;6.07;;;5.20;;
10719;SDS011;5411;58.386;15.560;2022-10-16T02:18:22;7.27;;;5.43;;
10719;SDS011;5411;58.386;15.560;2022-10-16T02:20:59;10.37;;;5.70;;
10719;SDS011;5411;58.386;15.560;2022-10-16T02:23:35;6.13;;;5.53;;
10719;SDS011;5411;58.386;15.560;2022-10-16T02:26:12;6.67;;;5.80;;
10719;SDS011;5411;58.386;15.560;2022-10-16T02:28:45;9.10;;;5.80;;
10719;SDS011;5411;58.386;15.560;2022-10-16T02:31:20;7.83;;;6.37;;
10719;SDS011;5411;58.386;15.560;2022-10-16T02:33:54;6.47;;;5.40;;
10719;SDS011;5411;58.386;15.560;2022-10-16T02:36:24;8.03;;;5.27;;
10719;SDS011;5411;58.386;15.560;2022-10-16T02:38:53;7.57;;;4.93;;
10719;SDS011;5411;58.386;15.560;2022-10-16T02:41:22;7.60;;;5.20;;
10719;SDS011;5411;58.386;15.560;2022-10-16T02:43:52;7.50;;;5.13;;
10719;SDS011;5411;58.386;15.560;2022-10-16T02:46:21;8.10;;;4.73;;
10719;SDS011;5411;58.386;15.560;2022-10-16T02:48:50;8.17;;;5.10;;
10719;SDS011;5411;58.386;15.560;2022-10-16T02:51:18;8.30;;;6.00;;
10719;SDS011;5411;58.386;15.560;2022-10-16T02:53:46;6.90;;;4.80;;
10719;SDS011;5411;58.386;15.560;2022-10-16T02:56:15;6.00;;;5.37;;
10719;SDS011;5411;58.386;15.560;2022-10-16T02:58:44;6.77;;;4.83;;
10719;SDS011;5411;58.386;15.560;2022-10-16T03:01:22;7.77;;;5.63;;
10719;SDS011;5411;58.386;15.560;2022-10-16T03:03:51;7.63;;;4.90;;
10719;SDS011;5411;58.386;15.560;2022-10-16T03:06:19;6.13;;;5.07;;
10719;SDS011;5411;58.386;15.560;2022-10-16T03:08:47;5.77;;;4.97;;
10719;SDS011;5411;58.386;15.560;2022-10-16T03:11:16;9.63;;;5.67;;
10719;SDS011;5411;58.386;15.560;2022-10-16T03:13:47;7.20;;;5.50;;
10719;SDS011;5411;58.386;15.560;2022-10-16T03:16:16;6.40;;;5.70;;
10719;SDS011;5411;58.386;15.560;2022-10-16T03:18:49;8.97;;;5.27;;
10719;SDS011;5411;58.386;15.560;2022-10-16T03:21:17;7.60;;;5.57;;
10719;SDS011;5411;58.386;15.560;2022-10-16T03:23:45;8.90;;;5.77;;
10719;SDS011;5411;58.386;15.560;2022-10-16T03:26:14;5.73;;;4.77;;
10719;SDS011;5411;58.386;15.560;2022-10-16T03:28:42;7.90;;;5.50;;
10719;SDS011;5411;58.386;15.560;2022-10-16T03:31:13;6.43;;;5.73;;
10719;SDS011;5411;58.386;15.560;2022-10-16T03:33:48;5.93;;;5.13;;
10719;SDS011;5411;58.386;15.560;2022-10-16T03:36:17;7.17;;;5.77;;
10719;SDS011;5411;58.386;15.560;2022-10-16T03:38:45;9.97;;;6.07;;
10719;SDS011;5411;58.386;15.560;2022-10-16T03:41:13;6.57;;;5.47;;
10719;SDS011;5411;58.386;15.560;2022-10-16T03:43:41;7.33;;;6.03;;
10719;SDS011;5411;58.386;15.560;2022-10-16T03:46:09;8.37;;;6.43;;
10719;SDS011;5411;58.386;15.560;2022-10-16T03:48:38;6.73;;;5.73;;
10719;SDS011;5411;58.386;15.560;2022-10-16T03:51:08;7.53;;;5.63;;
10719;SDS011;5411;58.386;15.560;2022-10-16T03:53:36;7.23;;;5.87;;
10719;SDS011;5411;58.386;15.560;2022-10-16T03:56:05;8.03;;;6.13;;
10719;SDS011;5411;58.386;15.560;2022-10-16T03:58:34;6.20;;;5.60;;
10719;SDS011;5411;58.386;15.560;2022-10-16T04:01:03;7.80;;;5.50;;
10719;SDS011;5411;58.386;15.560;2022-10-16T04:03:31;7.67;;;6.13;;
10719;SDS011;5411;58.386;15.560;2022-10-16T04:05:59;7.53;;;5.90;;
10719;SDS011;5411;58.386;15.560;2022-10-16T04:08:29;11.60;;;6.97;;
10719;SDS011;5411;58.386;15.560;2022-10-16T04:10:57;6.67;;;5.90;;
10719;SDS011;5411;58.386;15.560;2022-10-16T04:13:25;8.57;;;6.53;;
10719;SDS011;5411;58.386;15.560;2022-10-16T04:15:53;7.50;;;5.60;;
10719;SDS011;5411;58.386;15.560;2022-10-16T04:18:21;8.27;;;6.10;;
10719;SDS011;5411;58.386;15.560;2022-10-16T04:20:49;10.20;;;5.97;;
10719;SDS011;5411;58.386;15.560;2022-10-16T04:23:18;6.63;;;5.60;;
10719;SDS011;5411;58.386;15.560;2022-10-16T04:25:47;8.43;;;6.17;;
10719;SDS011;5411;58.386;15.560;2022-10-16T04:28:15;6.97;;;5.80;;
10719;SDS011;5411;58.386;15.560;2022-10-16T04:30:43;7.43;;;5.97;;
10719;SDS011;5411;58.386;15.560;2022-10-16T04:33:12;7.87;;;6.67;;
10719;SDS011;5411;58.386;15.560;2022-10-16T04:35:41;10.23;;;6.10;;
10719;SDS011;5411;58.386;15.560;2022-10-16T04:38:09;8.10;;;6.23;;
10719;SDS011;5411;58.386;15.560;2022-10-16T04:40:37;6.97;;;6.27;;
10719;SDS011;5411;58.386;15.560;2022-10-16T04:43:07;7.23;;;6.03;;
10719;SDS011;5411;58.386;15.560;2022-10-16T04:45:37;8.53;;;5.77;;
10719;SDS011;5411;58.386;15.560;2022-10-16T04:48:05;7.63;;;6.10;;
10719;SDS011;5411;58.386;15.560;2022-10-16T04:50:33;8.63;;;6.10;;
10719;SDS011;5411;58.386;15.560;2022-10-16T04:53:01;9.83;;;6.80;;
10719;SDS011;5411;58.386;15.560;2022-10-16T04:55:29;9.90;;;6.07;;
10719;SDS011;5411;58.386;15.560;2022-10-16T04:57:57;7.47;;;5.80;;
10719;SDS011;5411;58.386;15.560;2022-10-16T05:00:27;9.87;;;6.37;;
10719;SDS011;5411;58.386;15.560;2022-10-16T05:02:58;11.27;;;7.10;;
10719;SDS011;5411;58.386;15.560;2022-10-16T05:05:34;8.97;;;6.70;;
10719;SDS011;5411;58.386;15.560;2022-10-16T05:08:02;7.13;;;5.47;;
10719;SDS011;5411;58.386;15.560;2022-10-16T05:10:31;7.37;;;5.90;;
10719;SDS011;5411;58.386;15.560;2022-10-16T05:12:59;9.37;;;6.23;;
10719;SDS011;5411;58.386;15.560;2022-10-16T05:15:29;8.37;;;6.47;;
10719;SDS011;5411;58.386;15.560;2022-10-16T05:17:57;7.40;;;6.30;;
10719;SDS011;5411;58.386;15.560;2022-10-16T05:20:28;7.90;;;6.63;;
10719;SDS011;5411;58.386;15.560;2022-10-16T05:22:56;10.17;;;6.17;;
10719;SDS011;5411;58.386;15.560;2022-10-16T05:25:24;9.07;;;6.60;;
10719;SDS011;5411;58.386;15.560;2022-10-16T05:27:52;10.67;;;6.90;;
10719;SDS011;5411;58.386;15.560;2022-10-16T05:30:20;9.27;;;6.87;;
10719;SDS011;5411;58.386;15.560;2022-10-16T05:32:50;7.10;;;5.87;;
10719;SDS011;5411;58.386;15.560;2022-10-16T05:35:20;7.53;;;5.73;;
10719;SDS011;5411;58.386;15.560;2022-10-16T05:37:48;8.30;;;6.10;;
10719;SDS011;5411;58.386;15.560;2022-10-16T05:40:17;8.37;;;5.80;;
10719;SDS011;5411;58.386;15.560;2022-10-16T05:42:45;7.93;;;5.83;;
10719;SDS011;5411;58.386;15.560;2022-10-16T05:45:13;9.43;;;5.80;;
10719;SDS011;5411;58.386;15.560;2022-10-16T05:47:41;9.33;;;5.80;;
10719;SDS011;5411;58.386;15.560;2022-10-16T05:50:11;7.17;;;6.10;;
10719;SDS011;5411;58.386;15.560;2022-10-16T05:52:39;7.50;;;5.77;;
10719;SDS011;5411;58.386;15.560;2022-10-16T05:55:07;7.97;;;6.00;;
10719;SDS011;5411;58.386;15.560;2022-10-16T05:57:36;9.07;;;6.57;;
10719;SDS011;5411;58.386;15.560;2022-10-16T06:00:05;10.47;;;5.90;;
10719;SDS011;5411;58.386;15.560;2022-10-16T06:02:34;9.37;;;6.63;;
10719;SDS011;5411;58.386;15.560;2022-10-16T06:05:03;7.60;;;5.70;;
10719;SDS011;5411;58.386;15.560;2022-10-16T06:07:35;6.03;;;5.13;;
10719;SDS011;5411;58.386;15.560;2022-10-16T06:10:04;7.87;;;6.10;;
10719;SDS011;5411;58.386;15.560;2022-10-16T06:12:34;6.73;;;6.03;;
10719;SDS011;5411;58.386;15.560;2022-10-16T06:15:02;8.83;;;5.53;;
10719;SDS011;5411;58.386;15.560;2022-10-16T06:17:32;7.13;;;5.77;;
10719;SDS011;5411;58.386;15.560;2022-10-16T06:20:01;6.17;;;5.50;;
10719;SDS011;5411;58.386;15.560;2022-10-16T06:22:29;6.93;;;5.80;;
10719;SDS011;5411;58.386;15.560;2022-10-16T06:24:58;5.70;;;5.10;;
10719;SDS011;5411;58.386;15.560;2022-10-16T06:27:27;6.60;;;5.60;;
10719;SDS011;5411;58.386;15.560;2022-10-16T06:29:55;7.37;;;5.23;;
10719;SDS011;5411;58.386;15.560;2022-10-16T06:32:24;9.27;;;6.00;;
10719;SDS011;5411;58.386;15.560;2022-10-16T06:34:52;7.47;;;5.30;;
10719;SDS011;5411;58.386;15.560;2022-10-16T06:37:20;6.10;;;5.10;;
10719;SDS011;5411;58.386;15.560;2022-10-16T06:39:49;9.50;;;5.63;;
10719;SDS011;5411;58.386;15.560;2022-10-16T06:42:21;6.50;;;5.43;;
10719;SDS011;5411;58.386;15.560;2022-10-16T06:44:49;7.47;;;5.33;;
10719;SDS011;5411;58.386;15.560;2022-10-16T06:47:17;6.37;;;5.20;;
10719;SDS011;5411;58.386;15.560;2022-10-16T06:49:46;7.10;;;5.20;;
10719;SDS011;5411;58.386;15.560;2022-10-16T06:52:19;7.67;;;5.60;;
10719;SDS011;5411;58.386;15.560;2022-10-16T06:54:47;9.20;;;5.57;;
10719;SDS011;5411;58.386;15.560;2022-10-16T06:57:16;10.10;;;5.23;;
10719;SDS011;5411;58.386;15.560;2022-10-16T06:59:46;5.57;;;4.67;;
10719;SDS011;5411;58.386;15.560;2022-10-16T07:02:20;7.17;;;4.87;;
10719;SDS011;5411;58.386;15.560;2022-10-16T07:04:49;6.50;;;4.93;;
10719;SDS011;5411;58.386;15.560;2022-10-16T07:07:17;6.83;;;4.47;;
10719;SDS011;5411;58.386;15.560;2022-10-16T07:09:45;7.43;;;4.60;;
10719;SDS011;5411;58.386;15.560;2022-10-16T07:12:13;6.03;;;4.30;;
10719;SDS011;5411;58.386;15.560;2022-10-16T07:14:41;5.90;;;3.90;;
10719;SDS011;5411;58.386;15.560;2022-10-16T07:17:11;4.60;;;3.27;;
10719;SDS011;5411;58.386;15.560;2022-10-16T07:19:39;5.33;;;3.73;;
10719;SDS011;5411;58.386;15.560;2022-10-16T07:22:07;7.83;;;3.87;;
10719;SDS011;5411;58.386;15.560;2022-10-16T07:24:35;4.60;;;3.90;;
10719;SDS011;5411;58.386;15.560;2022-10-16T07:27:03;5.47;;;4.13;;
10719;SDS011;5411;58.386;15.560;2022-10-16T07:29:32;7.00;;;4.30;;
10719;SDS011;5411;58.386;15.560;2022-10-16T07:32:01;7.53;;;4.60;;
10719;SDS011;5411;58.386;15.560;2022-10-16T07:34:31;4.40;;;3.97;;
10719;SDS011;5411;58.386;15.560;2022-10-16T07:36:59;6.17;;;4.13;;
10719;SDS011;5411;58.386;15.560;2022-10-16T07:39:27;7.83;;;4.47;;
10719;SDS011;5411;58.386;15.560;2022-10-16T07:41:56;5.90;;;3.60;;
10719;SDS011;5411;58.386;15.560;2022-10-16T07:44:24;5.93;;;3.63;;
10719;SDS011;5411;58.386;15.560;2022-10-16T07:46:53;7.50;;;3.60;;
10719;SDS011;5411;58.386;15.560;2022-10-16T07:49:21;4.97;;;3.50;;
10719;SDS011;5411;58.386;15.560;2022-10-16T07:51:50;5.00;;;3.87;;
10719;SDS011;5411;58.386;15.560;2022-10-16T07:54:18;5.97;;;3.60;;
10719;SDS011;5411;58.386;15.560;2022-10-16T07:56:47;6.90;;;3.83;;
10719;SDS011;5411;58.386;15.560;2022-10-16T07:59:15;4.33;;;3.93;;
10719;SDS011;5411;58.386;15.560;2022-10-16T08:01:43;4.70;;;3.77;;
10719;SDS011;5411;58.386;15.560;2022-10-16T08:04:12;5.43;;;4.73;;
10719;SDS011;5411;58.386;15.560;2022-10-16T08:06:40;5.20;;;4.17;;
10719;SDS011;5411;58.386;15.560;2022-10-16T08:09:11;8.17;;;4.20;;
10719;SDS011;5411;58.386;15.560;2022-10-16T08:11:41;6.30;;;4.10;;
10719;SDS011;5411;58.386;15.560;2022-10-16T08:14:09;6.90;;;3.87;;
10719;SDS011;5411;58.386;15.560;2022-10-16T08:16:37;5.17;;;3.83;;
10719;SDS011;5411;58.386;15.560;2022-10-16T08:19:06;7.77;;;4.07;;
10719;SDS011;5411;58.386;15.560;2022-10-16T08:21:34;5.20;;;3.50;;
10719;SDS011;5411;58.386;15.560;2022-10-16T08:24:03;5.90;;;3.47;;
10719;SDS011;5411;58.386;15.560;2022-10-16T08:26:32;3.93;;;3.50;;
10719;SDS011;5411;58.386;15.560;2022-10-16T08:29:01;6.97;;;4.00;;
10719;SDS011;5411;58.386;15.560;2022-10-16T08:31:29;3.93;;;3.53;;
10719;SDS011;5411;58.386;15.560;2022-10-16T08:33:57;5.80;;;3.77;;
10719;SDS011;5411;58.386;15.560;2022-10-16T08:36:26;4.30;;;3.90;;
10719;SDS011;5411;58.386;15.560;2022-10-16T08:38:54;4.80;;;3.47;;
10719;SDS011;5411;58.386;15.560;2022-10-16T08:41:27;4.80;;;3.67;;
10719;SDS011;5411;58.386;15.560;2022-10-16T08:44:19;5.87;;;3.47;;
10719;SDS011;5411;58.386;15.560;2022-10-16T08:47:00;5.17;;;3.27;;
10719;SDS011;5411;58.386;15.560;2022-10-16T08:49:39;4.27;;;3.30;;
10719;SDS011;5411;58.386;15.560;2022-10-16T08:52:10;3.83;;;3.17;;
10719;SDS011;5411;58.386;15.560;2022-10-16T08:54:42;6.40;;;3.53;;
10719;SDS011;5411;58.386;15.560;2022-10-16T08:57:15;5.57;;;4.10;;
10719;SDS011;5411;58.386;15.560;2022-10-16T08:59:51;6.17;;;3.03;;
10719;SDS011;5411;58.386;15.560;2022-10-16T09:02:24;6.37;;;3.30;;
10719;SDS011;5411;58.386;15.560;2022-10-16T09:05:17;4.33;;;3.30;;
10719;SDS011;5411;58.386;15.560;2022-10-16T09:07:55;4.60;;;3.03;;
10719;SDS011;5411;58.386;15.560;2022-10-16T09:10:39;4.03;;;3.17;;
10719;SDS011;5411;58.386;15.560;2022-10-16T09:13:17;3.40;;;2.73;;
10719;SDS011;5411;58.386;15.560;2022-10-16T09:15:55;6.60;;;3.97;;
10719;SDS011;5411;58.386;15.560;2022-10-16T09:18:29;5.10;;;3.10;;
10719;SDS011;5411;58.386;15.560;2022-10-16T09:21:10;4.83;;;3.43;;
10719;SDS011;5411;58.386;15.560;2022-10-16T09:23:43;3.90;;;3.13;;
10719;SDS011;5411;58.386;15.560;2022-10-16T09:26:12;4.80;;;3.07;;
10719;SDS011;5411;58.386;15.560;2022-10-16T09:28:41;7.20;;;2.90;;
10719;SDS011;5411;58.386;15.560;2022-10-16T09:31:18;7.90;;;3.23;;
10719;SDS011;5411;58.386;15.560;2022-10-16T09:33:48;3.30;;;3.00;;
10719;SDS011;5411;58.386;15.560;2022-10-16T09:36:21;4.00;;;2.90;;
10719;SDS011;5411;58.386;15.560;2022-10-16T09:39:01;3.73;;;2.90;;
10719;SDS011;5411;58.386;15.560;2022-10-16T09:41:33;4.93;;;2.90;;
10719;SDS011;5411;58.386;15.560;2022-10-16T09:44:04;3.53;;;3.00;;
10719;SDS011;5411;58.386;15.560;2022-10-16T09:46:45;5.40;;;3.03;;
10719;SDS011;5411;58.386;15.560;2022-10-16T09:49:21;4.23;;;2.80;;
10719;SDS011;5411;58.386;15.560;2022-10-16T09:51:51;2.63;;;2.43;;
10719;SDS011;5411;58.386;15.560;2022-10-16T09:54:30;3.70;;;2.60;;
10719;SDS011;5411;58.386;15.560;2022-10-16T09:57:05;6.60;;;2.70;;
10719;SDS011;5411;58.386;15.560;2022-10-16T09:59:44;2.33;;;2.13;;
10719;SDS011;5411;58.386;15.560;2022-10-16T10:02:15;5.03;;;2.53;;
10719;SDS011;5411;58.386;15.560;2022-10-16T10:04:48;3.60;;;2.47;;
10719;SDS011;5411;58.386;15.560;2022-10-16T10:07:23;4.43;;;2.50;;
10719;SDS011;5411;58.386;15.560;2022-10-16T10:09:54;5.50;;;2.70;;
10719;SDS011;5411;58.386;15.560;2022-10-16T10:12:24;3.97;;;3.27;;
10719;SDS011;5411;58.386;15.560;2022-10-16T10:14:56;4.40;;;3.00;;
10719;SDS011;5411;58.386;15.560;2022-10-16T10:17:27;3.30;;;2.73;;
10719;SDS011;5411;58.386;15.560;2022-10-16T10:19:57;5.53;;;2.90;;
10719;SDS011;5411;58.386;15.560;2022-10-16T10:22:29;3.70;;;2.30;;
10719;SDS011;5411;58.386;15.560;2022-10-16T10:28:00;3.37;;;2.40;;
10719;SDS011;5411;58.386;15.560;2022-10-16T10:30:47;4.23;;;2.10;;
10719;SDS011;5411;58.386;15.560;2022-10-16T10:33:30;3.93;;;2.13;;
10719;SDS011;5411;58.386;15.560;2022-10-16T10:36:09;4.83;;;2.50;;
10719;SDS011;5411;58.386;15.560;2022-10-16T10:38:46;3.93;;;2.53;;
10719;SDS011;5411;58.386;15.560;2022-10-16T10:44:29;4.67;;;2.17;;
10719;SDS011;5411;58.386;15.560;2022-10-16T10:47:20;4.97;;;2.20;;
10719;SDS011;5411;58.386;15.560;2022-10-16T10:50:03;4.97;;;2.47;;
10719;SDS011;5411;58.386;15.560;2022-10-16T10:52:47;4.33;;;2.23;;
10719;SDS011;5411;58.386;15.560;2022-10-16T10:55:28;4.60;;;2.23;;
10719;SDS011;5411;58.386;15.560;2022-10-16T10:58:12;4.03;;;2.40;;
10719;SDS011;5411;58.386;15.560;2022-10-16T11:01:06;3.83;;;1.90;;
10719;SDS011;5411;58.386;15.560;2022-10-16T11:03:48;4.57;;;2.20;;
10719;SDS011;5411;58.386;15.560;2022-10-16T11:06:39;2.30;;;1.97;;
10719;SDS011;5411;58.386;15.560;2022-10-16T11:09:12;5.90;;;2.50;;
10719;SDS011;5411;58.386;15.560;2022-10-16T11:11:45;4.90;;;2.20;;
10719;SDS011;5411;58.386;15.560;2022-10-16T11:14:18;4.73;;;2.50;;
10719;SDS011;5411;58.386;15.560;2022-10-16T11:16:51;6.27;;;2.03;;
10719;SDS011;5411;58.386;15.560;2022-10-16T11:19:27;2.57;;;1.83;;
10719;SDS011;5411;58.386;15.560;2022-10-16T11:22:05;6.20;;;2.47;;
10719;SDS011;5411;58.386;15.560;2022-10-16T11:24:41;6.00;;;2.40;;
10719;SDS011;5411;58.386;15.560;2022-10-16T11:27:16;4.40;;;2.30;;
10719;SDS011;5411;58.386;15.560;2022-10-16T11:29:49;4.33;;;2.10;;
10719;SDS011;5411;58.386;15.560;2022-10-16T11:32:23;3.13;;;1.77;;
10719;SDS011;5411;58.386;15.560;2022-10-16T11:34:59;4.47;;;2.00;;
10719;SDS011;5411;58.386;15.560;2022-10-16T11:37:34;3.90;;;2.07;;
10719;SDS011;5411;58.386;15.560;2022-10-16T11:40:14;6.00;;;2.17;;
10719;SDS011;5411;58.386;15.560;2022-10-16T11:42:48;4.10;;;2.10;;
10719;SDS011;5411;58.386;15.560;2022-10-16T11:45:24;6.97;;;2.77;;
10719;SDS011;5411;58.386;15.560;2022-10-16T11:48:00;5.07;;;2.87;;
10719;SDS011;5411;58.386;15.560;2022-10-16T11:50:51;5.80;;;2.20;;
10719;SDS011;5411;58.386;15.560;2022-10-16T11:53:24;3.43;;;2.20;;
10719;SDS011;5411;58.386;15.560;2022-10-16T11:56:11;8.53;;;2.30;;
10719;SDS011;5411;58.386;15.560;2022-10-16T11:58:44;3.30;;;2.10;;
10719;SDS011;5411;58.386;15.560;2022-10-16T12:01:22;4.13;;;2.10;;
10719;SDS011;5411;58.386;15.560;2022-10-16T12:04:04;3.50;;;1.93;;
10719;SDS011;5411;58.386;15.560;2022-10-16T12:06:47;9.57;;;2.10;;
10719;SDS011;5411;58.386;15.560;2022-10-16T12:09:21;4.23;;;2.03;;
10719;SDS011;5411;58.386;15.560;2022-10-16T12:11:53;3.73;;;2.13;;
10719;SDS011;5411;58.386;15.560;2022-10-16T12:14:33;6.53;;;2.17;;
10719;SDS011;5411;58.386;15.560;2022-10-16T12:17:25;2.83;;;1.90;;
10719;SDS011;5411;58.386;15.560;2022-10-16T12:20:12;4.60;;;2.10;;
10719;SDS011;5411;58.386;15.560;2022-10-16T12:22:48;5.27;;;2.07;;
10719;SDS011;5411;58.386;15.560;2022-10-16T12:25:23;4.70;;;2.03;;
10719;SDS011;5411;58.386;15.560;2022-10-16T12:27:55;3.37;;;1.93;;
10719;SDS011;5411;58.386;15.560;2022-10-16T12:30:29;6.50;;;2.30;;
10719;SDS011;5411;58.386;15.560;2022-10-16T12:33:02;4.73;;;2.13;;
10719;SDS011;5411;58.386;15.560;2022-10-16T12:35:33;7.17;;;2.53;;
10719;SDS011;5411;58.386;15.560;2022-10-16T12:38:15;6.20;;;2.07;;
10719;SDS011;5411;58.386;15.560;2022-10-16T12:40:47;2.73;;;1.70;;
10719;SDS011;5411;58.386;15.560;2022-10-16T12:43:34;6.57;;;1.70;;
10719;SDS011;5411;58.386;15.560;2022-10-16T12:46:21;3.87;;;2.23;;
10719;SDS011;5411;58.386;15.560;2022-10-16T12:48:52;6.07;;;2.20;;
10719;SDS011;5411;58.386;15.560;2022-10-16T12:51:36;5.67;;;2.00;;
10719;SDS011;5411;58.386;15.560;2022-10-16T12:54:10;5.83;;;1.63;;
10719;SDS011;5411;58.386;15.560;2022-10-16T12:56:44;4.80;;;2.33;;
10719;SDS011;5411;58.386;15.560;2022-10-16T12:59:22;5.13;;;1.90;;
10719;SDS011;5411;58.386;15.560;2022-10-16T13:02:11;4.93;;;1.70;;
10719;SDS011;5411;58.386;15.560;2022-10-16T13:05:00;5.77;;;1.87;;
10719;SDS011;5411;58.386;15.560;2022-10-16T13:07:48;5.60;;;1.97;;
10719;SDS011;5411;58.386;15.560;2022-10-16T13:10:28;4.43;;;2.97;;
10719;SDS011;5411;58.386;15.560;2022-10-16T13:13:14;3.50;;;1.80;;
10719;SDS011;5411;58.386;15.560;2022-10-16T13:15:54;4.73;;;1.90;;
10719;SDS011;5411;58.386;15.560;2022-10-16T13:18:36;7.17;;;2.20;;
10719;SDS011;5411;58.386;15.560;2022-10-16T13:21:18;5.60;;;2.17;;
10719;SDS011;5411;58.386;15.560;2022-10-16T13:24:02;7.73;;;1.90;;
10719;SDS011;5411;58.386;15.560;2022-10-16T13:26:39;7.30;;;2.77;;
10719;SDS011;5411;58.386;15.560;2022-10-16T13:29:15;4.97;;;1.80;;
10719;SDS011;5411;58.386;15.560;2022-10-16T13:31:43;6.40;;;2.23;;
10719;SDS011;5411;58.386;15.560;2022-10-16T13:34:12;5.83;;;1.77;;
10719;SDS011;5411;58.386;15.560;2022-10-16T13:36:46;4.33;;;2.40;;
10719;SDS011;5411;58.386;15.560;2022-10-16T13:39:22;3.30;;;1.77;;
10719;SDS011;5411;58.386;15.560;2022-10-16T13:42:00;4.63;;;1.83;;
10719;SDS011;5411;58.386;15.560;2022-10-16T13:44:38;3.20;;;1.50;;
10719;SDS011;5411;58.386;15.560;2022-10-16T13:47:14;5.43;;;1.90;;
10719;SDS011;5411;58.386;15.560;2022-10-16T13:49:44;5.17;;;2.07;;
10719;SDS011;5411;58.386;15.560;2022-10-16T13:52:17;5.77;;;2.20;;
10719;SDS011;5411;58.386;15.560;2022-10-16T13:54:47;2.57;;;1.60;;
10719;SDS011;5411;58.386;15.560;2022-10-16T13:57:16;5.80;;;1.80;;
10719;SDS011;5411;58.386;15.560;2022-10-16T14:02:57;4.27;;;2.13;;
10719;SDS011;5411;58.386;15.560;2022-10-16T14:05:31;2.10;;;1.30;;
10719;SDS011;5411;58.386;15.560;2022-10-16T14:11:09;1.80;;;1.10;;
10719;SDS011;5411;58.386;15.560;2022-10-16T14:14:13;3.67;;;1.90;;
10719;SDS011;5411;58.386;15.560;2022-10-16T14:16:56;2.93;;;1.73;;
10719;SDS011;5411;58.386;15.560;2022-10-16T14:19:27;4.27;;;1.10;;
10719;SDS011;5411;58.386;15.560;2022-10-16T14:22:19;1.53;;;1.00;;
10719;SDS011;5411;58.386;15.560;2022-10-16T14:24:56;2.53;;;1.00;;
10719;SDS011;5411;58.386;15.560;2022-10-16T14:27:27;2.27;;;1.00;;
10719;SDS011;5411;58.386;15.560;2022-10-16T14:32:54;1.30;;;1.00;;
10719;SDS011;5411;58.386;15.560;2022-10-16T14:35:40;1.90;;;0.77;;
10719;SDS011;5411;58.386;15.560;2022-10-16T14:38:17;4.77;;;1.17;;
10719;SDS011;5411;58.386;15.560;2022-10-16T14:40:51;3.17;;;1.43;;
10719;SDS011;5411;58.386;15.560;2022-10-16T14:43:49;0.77;;;0.77;;
10719;SDS011;5411;58.386;15.560;2022-10-16T14:46:20;1.17;;;0.73;;
10719;SDS011;5411;58.386;15.560;2022-10-16T14:48:59;3.50;;;1.57;;
10719;SDS011;5411;58.386;15.560;2022-10-16T14:51:41;1.57;;;0.90;;
10719;SDS011;5411;58.386;15.560;2022-10-16T14:54:18;2.10;;;0.70;;
10719;SDS011;5411;58.386;15.560;2022-10-16T14:56:51;2.13;;;1.13;;
10719;SDS011;5411;58.386;15.560;2022-10-16T14:59:43;2.00;;;0.93;;
10719;SDS011;5411;58.386;15.560;2022-10-16T15:02:30;0.50;;;0.50;;
10719;SDS011;5411;58.386;15.560;2022-10-16T15:05:10;1.10;;;0.80;;
10719;SDS011;5411;58.386;15.560;2022-10-16T15:07:50;0.60;;;0.60;;
10719;SDS011;5411;58.386;15.560;2022-10-16T15:10:21;3.17;;;0.93;;
10719;SDS011;5411;58.386;15.560;2022-10-16T15:13:05;4.07;;;2.03;;
10719;SDS011;5411;58.386;15.560;2022-10-16T15:15:37;1.17;;;0.93;;
10719;SDS011;5411;58.386;15.560;2022-10-16T15:18:17;1.90;;;1.13;;
10719;SDS011;5411;58.386;15.560;2022-10-16T15:20:49;1.77;;;1.30;;
10719;SDS011;5411;58.386;15.560;2022-10-16T15:23:27;2.10;;;0.80;;
10719;SDS011;5411;58.386;15.560;2022-10-16T15:26:00;1.33;;;0.90;;
10719;SDS011;5411;58.386;15.560;2022-10-16T15:28:52;1.83;;;1.00;;
10719;SDS011;5411;58.386;15.560;2022-10-16T15:31:29;0.60;;;0.60;;
10719;SDS011;5411;58.386;15.560;2022-10-16T15:34:02;13.03;;;1.40;;
10719;SDS011;5411;58.386;15.560;2022-10-16T15:36:37;1.50;;;0.90;;
10719;SDS011;5411;58.386;15.560;2022-10-16T15:39:29;2.37;;;0.60;;